Norfolk International Airport Norfolk US
ICAO: KORF
IATA: ORF
Category: Large
Scheduled Services: Yes

Elevation: 26 ft
TransAlt. 18000 ft.

Airport Communications:
APP:28.83
APP:118.9
ATIS:127.15
CLNC DEL:118.5
DEP:125.2
GND:121.9
LEESBURG RDO:116.9
TWR:120.8

KORF Zoom In..

If you have problems with the map follow the link
https://www.worldairports.se/pages/airport.php?
ICAO=KORF

Runways:

(A) RW 05 length 9001 ft width 150 ft
ILS 109.10 / hdg 47

(B) RW 14 length 4875 ft width 150 ft
---- / hdg 137

(C) RW 23 length 9001 ft width 150 ft
ILS 109.10 / hdg 227

(D) RW 32 length 4875 ft width 150 ft
---- / hdg 317

Location; KORF
Day. 18 / Time. 01.58 Zulu
* Altimeter: 29.95
* Temperature: 06° c. 42.8°f.
* Wind from: 000° Speed 00 kn.
Dewpoint: 06° c.
Visibility: 2 Statute Miles.
Clouds: Scattered 600 ft.
Clouds: Broken 1400 ft.
Clouds: Overcast 2000 ft.
Conditions: Light Rain.Conditions: Mist.

KORF 180158Z 00000KT 2SM -RA BR SCT006 BKN014 OVC020 06/06 A2995 RMK AO2 P0000 T00610056 $


Wind - Calm.

 
 
jpsmedia.com for Web Design worldairports.se 2019   terms of use